Time;durP1;ratioP1;P1;durP2;ratioP2;P2;SDS_P1;SDS_P2;PMS_P1;PMS_P2;Temp;Humidity;BMP_temperature;BMP_pressure;BME280_temperature;BME280_humidity;BME280_pressure;Samples;Min_cycle;Max_cycle;Signal;HPM_P1;HPM_P2
2021/11/20 00:00:44;;;;;;;;;9.50;7.75;;;;;;;;5004972;28;45573;-72
2021/11/20 00:03:10;;;;;;;;;9.50;8.50;;;;;;;;5005598;28;46230;-72
2021/11/20 00:05:37;;;;;;;;;9.00;5.00;;;;;;;;5008047;28;45409;-72
2021/11/20 00:08:02;;;;;;;;;8.25;7.50;;;;;;;;5010533;28;45416;-72
2021/11/20 00:10:29;;;;;;;;;8.00;5.75;;;;;;;;5009789;28;45585;-71
2021/11/20 00:12:55;;;;;;;;;8.50;6.50;;;;;;;;5004459;28;45367;-72
2021/11/20 00:15:23;;;;;;;;;9.25;7.75;;;;;;;;5011953;28;45352;-72
2021/11/20 00:17:48;;;;;;;;;9.00;6.75;;;;;;;;5008205;28;46011;-72
2021/11/20 00:20:15;;;;;;;;;11.25;10.00;;;;;;;;4998408;28;45364;-72
2021/11/20 00:22:42;;;;;;;;;7.00;6.00;;;;;;;;5007487;28;46333;-72
2021/11/20 00:25:19;;;;;;;;;10.50;9.25;;;;;;;;5013783;28;45458;-72
2021/11/20 00:27:45;;;;;;;;;11.00;9.00;;;;;;;;5009448;28;45292;-72
2021/11/20 00:32:38;;;;;;;;;14.00;9.25;;;;;;;;5000052;28;45876;-72
2021/11/20 00:35:05;;;;;;;;;12.75;9.25;;;;;;;;5001663;28;45443;-72
2021/11/20 00:37:31;;;;;;;;;8.25;8.00;;;;;;;;4998740;28;45782;-72
2021/11/20 00:39:56;;;;;;;;;7.50;7.25;;;;;;;;5005788;28;45801;-72
2021/11/20 00:42:22;;;;;;;;;12.25;9.00;;;;;;;;4998555;28;45376;-71
2021/11/20 00:44:47;;;;;;;;;10.50;10.00;;;;;;;;5012261;28;45570;-72
2021/11/20 00:47:12;;;;;;;;;11.00;10.50;;;;;;;;5009350;28;45551;-72
2021/11/20 00:49:38;;;;;;;;;11.33;10.33;;;;;;;;5004188;28;45458;-72
2021/11/20 00:52:04;;;;;;;;;15.50;13.50;;;;;;;;5002699;28;46255;-72
2021/11/20 00:54:29;;;;;;;;;13.75;10.00;;;;;;;;5000567;28;45492;-71
2021/11/20 00:56:54;;;;;;;;;13.75;10.75;;;;;;;;5008144;28;45408;-71
2021/11/20 00:59:20;;;;;;;;;13.33;11.67;;;;;;;;5007648;28;45488;-71
2021/11/20 01:01:49;;;;;;;;;14.75;11.25;;;;;;;;5000595;28;47168;-72
2021/11/20 01:04:14;;;;;;;;;22.00;15.25;;;;;;;;5002425;28;45628;-72
2021/11/20 01:06:42;;;;;;;;;18.00;13.00;;;;;;;;5005416;28;45566;-72
2021/11/20 01:09:08;;;;;;;;;15.00;14.00;;;;;;;;4998442;28;45513;-72
2021/11/20 01:11:39;;;;;;;;;18.75;14.50;;;;;;;;5005790;28;45608;-72
2021/11/20 01:14:07;;;;;;;;;15.75;14.50;;;;;;;;5003080;28;45929;-71
2021/11/20 01:16:33;;;;;;;;;18.25;16.75;;;;;;;;5006113;28;45514;-72
2021/11/20 01:19:00;;;;;;;;;14.75;14.50;;;;;;;;4999681;28;45572;-71
2021/11/20 01:21:25;;;;;;;;;21.00;13.00;;;;;;;;5009022;28;48343;-71
2021/11/20 01:23:51;;;;;;;;;17.00;15.33;;;;;;;;4997819;28;45710;-72
2021/11/20 01:26:17;;;;;;;;;22.75;16.00;;;;;;;;5007514;28;45455;-72
2021/11/20 01:28:43;;;;;;;;;19.75;13.50;;;;;;;;5009888;28;45487;-72
2021/11/20 01:31:12;;;;;;;;;21.00;13.50;;;;;;;;5005999;28;45506;-72
2021/11/20 01:33:38;;;;;;;;;23.25;17.00;;;;;;;;5007911;28;45957;-71
2021/11/20 01:36:03;;;;;;;;;19.75;14.00;;;;;;;;5003287;28;45480;-71
2021/11/20 01:38:29;;;;;;;;;19.25;15.00;;;;;;;;4998352;28;45523;-72
2021/11/20 01:40:55;;;;;;;;;20.67;15.67;;;;;;;;5008994;28;46326;-72
2021/11/20 01:43:20;;;;;;;;;20.00;15.00;;;;;;;;5007296;28;45467;-71
2021/11/20 01:45:51;;;;;;;;;19.67;13.00;;;;;;;;5001506;28;45486;-72
2021/11/20 01:48:28;;;;;;;;;19.75;15.75;;;;;;;;5012621;28;45415;-72
2021/11/20 01:51:01;;;;;;;;;21.00;15.00;;;;;;;;5003089;28;46458;-72
2021/11/20 01:53:32;;;;;;;;;19.75;15.00;;;;;;;;5002168;28;45940;-71
2021/11/20 01:56:01;;;;;;;;;21.50;13.75;;;;;;;;5005403;28;45527;-72
2021/11/20 01:58:35;;;;;;;;;16.75;16.25;;;;;;;;5007417;28;45441;-71
2021/11/20 02:01:05;;;;;;;;;20.25;14.75;;;;;;;;5006304;28;46189;-71
2021/11/20 02:03:40;;;;;;;;;15.00;15.00;;;;;;;;5004971;28;45510;-72
2021/11/20 02:06:11;;;;;;;;;19.75;15.00;;;;;;;;5008118;28;45526;-72
2021/11/20 02:08:43;;;;;;;;;19.00;14.25;;;;;;;;5001765;28;46764;-71
2021/11/20 02:11:14;;;;;;;;;18.50;15.25;;;;;;;;5005135;28;47671;-72
2021/11/20 02:13:39;;;;;;;;;14.00;12.00;;;;;;;;5002480;28;45795;-71
2021/11/20 02:16:13;;;;;;;;;23.33;15.00;;;;;;;;5005035;28;45455;-72
2021/11/20 02:18:58;;;;;;;;;16.50;12.50;;;;;;;;5012563;28;45430;-72
2021/11/20 02:21:37;;;;;;;;;25.00;16.50;;;;;;;;5012495;28;45452;-72
2021/11/20 02:24:02;;;;;;;;;21.25;15.75;;;;;;;;5003750;28;45997;-70
2021/11/20 02:26:27;;;;;;;;;16.00;15.33;;;;;;;;5013146;28;45411;-70
2021/11/20 02:28:52;;;;;;;;;19.33;13.00;;;;;;;;5009954;28;45392;-70
2021/11/20 02:31:18;;;;;;;;;22.00;14.25;;;;;;;;5005352;28;46443;-70
2021/11/20 02:33:44;;;;;;;;;15.25;13.25;;;;;;;;5012668;28;45360;-70
2021/11/20 02:36:20;;;;;;;;;22.75;15.75;;;;;;;;4999846;28;45308;-71
2021/11/20 02:38:48;;;;;;;;;15.75;14.25;;;;;;;;5010157;28;45518;-70
2021/11/20 02:41:15;;;;;;;;;20.00;14.50;;;;;;;;5000851;28;45577;-70
2021/11/20 02:43:42;;;;;;;;;14.25;11.50;;;;;;;;5001421;28;45497;-70
2021/11/20 02:46:08;;;;;;;;;21.25;11.00;;;;;;;;5002342;28;45509;-70
2021/11/20 02:48:34;;;;;;;;;16.75;13.00;;;;;;;;5000276;28;45318;-70
2021/11/20 02:51:02;;;;;;;;;16.50;10.50;;;;;;;;5008775;28;46371;-70
2021/11/20 02:53:30;;;;;;;;;14.50;10.75;;;;;;;;5003629;28;45780;-71
2021/11/20 02:55:55;;;;;;;;;17.25;11.25;;;;;;;;5009020;28;45474;-70
2021/11/20 02:58:22;;;;;;;;;16.00;8.33;;;;;;;;5011086;28;45304;-70
2021/11/20 03:00:50;;;;;;;;;14.25;10.00;;;;;;;;5003844;28;46140;-70
2021/11/20 03:03:16;;;;;;;;;12.25;8.00;;;;;;;;5008071;28;45922;-70
2021/11/20 03:05:41;;;;;;;;;11.00;7.00;;;;;;;;5010713;28;45780;-70
2021/11/20 03:08:06;;;;;;;;;8.33;7.67;;;;;;;;5005783;28;45380;-70
2021/11/20 03:10:31;;;;;;;;;8.67;7.00;;;;;;;;5009602;28;46227;-70
2021/11/20 03:12:57;;;;;;;;;10.00;7.00;;;;;;;;5006355;28;45382;-70
2021/11/20 03:15:22;;;;;;;;;9.00;7.00;;;;;;;;5012608;28;45638;-70
2021/11/20 03:17:47;;;;;;;;;9.00;8.00;;;;;;;;5005326;28;45499;-72
2021/11/20 03:20:14;;;;;;;;;8.75;7.00;;;;;;;;5010379;28;45613;-72
2021/11/20 03:22:42;;;;;;;;;6.25;4.00;;;;;;;;5011861;28;45577;-71
2021/11/20 03:25:07;;;;;;;;;6.00;3.00;;;;;;;;5007733;28;45506;-71
2021/11/20 03:27:35;;;;;;;;;2.75;1.25;;;;;;;;5000186;28;45858;-71
2021/11/20 03:30:01;;;;;;;;;5.25;3.00;;;;;;;;4999444;28;47517;-71
2021/11/20 03:32:26;;;;;;;;;6.50;3.00;;;;;;;;5001119;28;45390;-71
2021/11/20 03:34:53;;;;;;;;;3.00;3.00;;;;;;;;5005662;28;45544;-71
2021/11/20 03:37:22;;;;;;;;;4.00;3.00;;;;;;;;5005026;28;45874;-71
2021/11/20 03:39:47;;;;;;;;;2.00;2.00;;;;;;;;5003611;28;46297;-71
2021/11/20 03:42:13;;;;;;;;;3.33;3.33;;;;;;;;5011348;28;45483;-71
2021/11/20 03:44:38;;;;;;;;;7.00;3.00;;;;;;;;5012630;28;45360;-71
2021/11/20 03:47:03;;;;;;;;;6.00;4.00;;;;;;;;5009968;28;45468;-71
2021/11/20 03:49:29;;;;;;;;;9.50;3.25;;;;;;;;5004588;28;46194;-71
2021/11/20 03:51:54;;;;;;;;;6.00;3.00;;;;;;;;5009341;28;45633;-71
2021/11/20 03:54:19;;;;;;;;;6.00;2.75;;;;;;;;4999673;28;45457;-71
2021/11/20 03:56:44;;;;;;;;;7.00;3.00;;;;;;;;4999128;28;45372;-71
2021/11/20 03:59:10;;;;;;;;;4.00;4.00;;;;;;;;5007617;28;46254;-71
2021/11/20 04:01:35;;;;;;;;;4.00;3.00;;;;;;;;5004006;28;45547;-71
2021/11/20 04:04:01;;;;;;;;;7.50;2.50;;;;;;;;5001040;28;45628;-71
2021/11/20 04:06:26;;;;;;;;;3.00;2.00;;;;;;;;4998747;28;45583;-71
2021/11/20 04:08:52;;;;;;;;;2.00;2.00;;;;;;;;5013696;28;45911;-71
2021/11/20 04:11:20;;;;;;;;;3.25;2.00;;;;;;;;5005935;28;45391;-71
2021/11/20 04:13:45;;;;;;;;;3.25;1.00;;;;;;;;5001516;28;45334;-71
2021/11/20 04:16:12;;;;;;;;;1.50;1.00;;;;;;;;5006120;28;45541;-71
2021/11/20 04:18:38;;;;;;;;;2.25;1.00;;;;;;;;5009216;28;47800;-71
2021/11/20 04:21:03;;;;;;;;;7.25;1.00;;;;;;;;5012798;28;45678;-71
2021/11/20 04:23:28;;;;;;;;;1.00;1.00;;;;;;;;5001438;28;45404;-71
2021/11/20 04:25:54;;;;;;;;;2.67;1.33;;;;;;;;5003333;28;45284;-71
2021/11/20 04:28:19;;;;;;;;;1.00;1.00;;;;;;;;5008424;28;46191;-71
2021/11/20 04:30:45;;;;;;;;;2.75;1.25;;;;;;;;5003569;28;45471;-71
2021/11/20 04:33:11;;;;;;;;;1.00;1.00;;;;;;;;5004055;28;45537;-71
2021/11/20 04:35:37;;;;;;;;;1.50;1.50;;;;;;;;4996257;28;45951;-71
2021/11/20 04:38:03;;;;;;;;;3.25;0.25;;;;;;;;5002212;28;46591;-71
2021/11/20 04:40:28;;;;;;;;;3.00;1.00;;;;;;;;5006008;28;45317;-71
2021/11/20 04:42:54;;;;;;;;;1.00;0.75;;;;;;;;5007584;28;45488;-71
2021/11/20 04:45:20;;;;;;;;;2.00;2.00;;;;;;;;5011001;28;45672;-71
2021/11/20 04:47:46;;;;;;;;;1.75;1.75;;;;;;;;5002635;28;46694;-71
2021/11/20 04:50:12;;;;;;;;;1.50;1.50;;;;;;;;5001598;28;45424;-71
2021/11/20 04:52:37;;;;;;;;;2.00;0.00;;;;;;;;5004644;28;45425;-71
2021/11/20 04:55:04;;;;;;;;;2.25;1.00;;;;;;;;5002356;28;45528;-71
2021/11/20 04:57:29;;;;;;;;;6.00;3.00;;;;;;;;5001253;28;45707;-71
2021/11/20 04:59:54;;;;;;;;;2.00;1.00;;;;;;;;5001014;28;45438;-71
2021/11/20 05:02:19;;;;;;;;;2.00;2.00;;;;;;;;5012038;28;45521;-71
2021/11/20 05:04:45;;;;;;;;;6.00;3.00;;;;;;;;5008755;28;45597;-71
2021/11/20 05:07:10;;;;;;;;;4.75;1.00;;;;;;;;5007435;28;46639;-70
2021/11/20 05:09:36;;;;;;;;;3.50;1.75;;;;;;;;5007455;28;45513;-71
2021/11/20 05:12:03;;;;;;;;;3.25;1.00;;;;;;;;4998393;28;45303;-71
2021/11/20 05:14:28;;;;;;;;;3.00;3.00;;;;;;;;4998852;28;45556;-71
2021/11/20 05:16:53;;;;;;;;;3.00;1.25;;;;;;;;4999354;28;45597;-71
2021/11/20 05:19:19;;;;;;;;;3.00;2.00;;;;;;;;5004170;28;45452;-71
2021/11/20 05:21:44;;;;;;;;;2.00;2.00;;;;;;;;5016573;28;45529;-71
2021/11/20 05:24:09;;;;;;;;;3.50;2.00;;;;;;;;5012657;28;45351;-71
2021/11/20 05:26:34;;;;;;;;;12.00;2.25;;;;;;;;5009852;28;47190;-71
2021/11/20 05:29:07;;;;;;;;;6.00;3.00;;;;;;;;5007297;28;45578;-71
2021/11/20 05:31:33;;;;;;;;;6.50;3.00;;;;;;;;5009211;28;45698;-71
2021/11/20 05:33:59;;;;;;;;;3.00;2.00;;;;;;;;5012012;28;45382;-71
2021/11/20 05:36:30;;;;;;;;;2.25;2.25;;;;;;;;5009026;28;45464;-71
2021/11/20 05:38:55;;;;;;;;;2.75;2.50;;;;;;;;5002132;28;45792;-71
2021/11/20 05:41:20;;;;;;;;;5.00;2.75;;;;;;;;5015916;28;45569;-71
2021/11/20 05:43:46;;;;;;;;;5.33;2.00;;;;;;;;5004394;28;45455;-71
2021/11/20 05:46:13;;;;;;;;;3.25;1.50;;;;;;;;5007385;28;45776;-71
2021/11/20 05:48:38;;;;;;;;;3.00;2.75;;;;;;;;5014960;28;45396;-71
2021/11/20 05:51:03;;;;;;;;;2.33;2.00;;;;;;;;5001360;28;45507;-71
2021/11/20 05:53:29;;;;;;;;;4.00;2.00;;;;;;;;5011205;28;45464;-71
2021/11/20 05:55:55;;;;;;;;;2.50;2.50;;;;;;;;5005403;28;46131;-73
2021/11/20 05:58:21;;;;;;;;;7.00;3.75;;;;;;;;5007204;28;45886;-72
2021/11/20 06:00:47;;;;;;;;;5.25;3.00;;;;;;;;5012458;28;45424;-71
2021/11/20 06:03:13;;;;;;;;;7.00;6.00;;;;;;;;5008330;28;46557;-71
2021/11/20 06:05:39;;;;;;;;;6.00;4.00;;;;;;;;5002367;28;45561;-72
2021/11/20 06:08:06;;;;;;;;;8.25;5.50;;;;;;;;5005295;28;46320;-72
2021/11/20 06:10:31;;;;;;;;;8.50;3.50;;;;;;;;5005443;28;45626;-72
2021/11/20 06:12:56;;;;;;;;;8.00;6.00;;;;;;;;5011580;28;45537;-72
2021/11/20 06:15:22;;;;;;;;;3.25;2.50;;;;;;;;5000236;28;45611;-71
2021/11/20 06:17:47;;;;;;;;;2.75;2.75;;;;;;;;5003922;28;45562;-72
2021/11/20 06:20:12;;;;;;;;;4.67;3.00;;;;;;;;5001481;28;45450;-71
2021/11/20 06:22:38;;;;;;;;;3.75;2.75;;;;;;;;5003369;28;45747;-71
2021/11/20 06:25:04;;;;;;;;;3.00;3.00;;;;;;;;5006277;28;45478;-71
2021/11/20 06:27:29;;;;;;;;;3.00;3.00;;;;;;;;5002159;28;47713;-72
2021/11/20 06:29:55;;;;;;;;;4.00;4.00;;;;;;;;5011406;28;45526;-71
2021/11/20 06:32:20;;;;;;;;;2.50;1.75;;;;;;;;4998538;28;45475;-71
2021/11/20 06:34:45;;;;;;;;;4.00;3.00;;;;;;;;5006637;28;46360;-71
2021/11/20 06:37:10;;;;;;;;;5.25;5.00;;;;;;;;5004716;28;45315;-71
2021/11/20 06:39:37;;;;;;;;;6.00;4.00;;;;;;;;5004326;28;45525;-71
2021/11/20 06:42:04;;;;;;;;;7.50;6.00;;;;;;;;5016693;28;45461;-71
2021/11/20 06:44:30;;;;;;;;;5.00;5.00;;;;;;;;5005063;28;47180;-71
2021/11/20 06:46:55;;;;;;;;;6.00;3.75;;;;;;;;5011578;28;45556;-71
2021/11/20 06:49:21;;;;;;;;;4.00;3.33;;;;;;;;5012298;28;45522;-71
2021/11/20 06:51:46;;;;;;;;;8.50;5.50;;;;;;;;5014539;28;45494;-71
2021/11/20 06:54:12;;;;;;;;;4.00;4.00;;;;;;;;5001404;28;46504;-71
2021/11/20 06:56:46;;;;;;;;;4.50;4.00;;;;;;;;5012265;28;45786;-71
2021/11/20 07:02:01;;;;;;;;;7.50;6.00;;;;;;;;4924381;28;45400;-72
2021/11/20 07:04:28;;;;;;;;;6.75;4.00;;;;;;;;4925863;28;45671;-71
2021/11/20 07:06:59;;;;;;;;;6.50;6.00;;;;;;;;4943519;28;45420;-71
2021/11/20 07:09:24;;;;;;;;;9.75;6.00;;;;;;;;4934001;28;45457;-71
2021/11/20 07:11:49;;;;;;;;;12.00;6.33;;;;;;;;4928694;28;45620;-71
2021/11/20 07:14:15;;;;;;;;;11.00;6.00;;;;;;;;4935550;28;45724;-71
2021/11/20 07:16:41;;;;;;;;;7.50;5.50;;;;;;;;4935108;28;45518;-71
2021/11/20 07:19:06;;;;;;;;;10.75;7.00;;;;;;;;4935407;28;45749;-71
2021/11/20 07:21:31;;;;;;;;;5.00;3.75;;;;;;;;4935213;28;45638;-71
2021/11/20 07:24:00;;;;;;;;;6.00;6.00;;;;;;;;4927991;28;46305;-71
2021/11/20 07:26:26;;;;;;;;;8.50;6.00;;;;;;;;4926670;28;45307;-71
2021/11/20 07:28:51;;;;;;;;;8.00;4.00;;;;;;;;4934356;28;45383;-71
2021/11/20 07:31:17;;;;;;;;;6.00;5.50;;;;;;;;4928809;28;45493;-71
2021/11/20 07:33:42;;;;;;;;;10.75;3.75;;;;;;;;4925047;28;45671;-72
2021/11/20 07:36:08;;;;;;;;;7.00;3.00;;;;;;;;4934458;28;45748;-71
2021/11/20 07:38:35;;;;;;;;;7.25;4.00;;;;;;;;4949194;28;45561;-71
2021/11/20 07:41:01;;;;;;;;;6.75;4.00;;;;;;;;5010001;28;45445;-71
2021/11/20 07:43:26;;;;;;;;;20.00;12.50;;;;;;;;5006981;28;46212;-72
2021/11/20 07:45:52;;;;;;;;;8.67;8.67;;;;;;;;5011105;28;45400;-73
2021/11/20 07:48:22;;;;;;;;;11.33;11.00;;;;;;;;5009907;28;45629;-74
2021/11/20 07:50:47;;;;;;;;;11.75;7.00;;;;;;;;4999391;28;45394;-73
2021/11/20 07:53:13;;;;;;;;;13.00;8.25;;;;;;;;5013462;28;45514;-73
2021/11/20 07:55:38;;;;;;;;;9.33;9.00;;;;;;;;5010047;28;45553;-72
2021/11/20 07:58:04;;;;;;;;;8.00;6.75;;;;;;;;5009704;28;45390;-72
2021/11/20 08:00:30;;;;;;;;;4.00;4.00;;;;;;;;5011591;28;45343;-72
2021/11/20 08:02:55;;;;;;;;;6.00;6.00;;;;;;;;5004701;28;46518;-72
2021/11/20 08:05:20;;;;;;;;;11.25;3.75;;;;;;;;5006088;28;45412;-72
2021/11/20 08:07:46;;;;;;;;;7.50;6.50;;;;;;;;5008659;28;45548;-73
2021/11/20 08:10:12;;;;;;;;;8.75;5.00;;;;;;;;5009020;28;45555;-72
2021/11/20 08:12:38;;;;;;;;;5.00;4.00;;;;;;;;5013571;28;46307;-72
2021/11/20 08:15:03;;;;;;;;;5.33;1.67;;;;;;;;5004649;28;45487;-72
2021/11/20 08:17:29;;;;;;;;;9.25;4.00;;;;;;;;5003092;28;45368;-72
2021/11/20 08:19:54;;;;;;;;;6.67;4.00;;;;;;;;5003651;28;45225;-72
2021/11/20 08:22:19;;;;;;;;;6.00;4.00;;;;;;;;5004017;28;45398;-72
2021/11/20 08:24:44;;;;;;;;;9.33;4.00;;;;;;;;5010861;28;45516;-72
2021/11/20 08:27:10;;;;;;;;;5.75;3.00;;;;;;;;4982048;28;45436;-72
2021/11/20 08:29:37;;;;;;;;;3.00;3.00;;;;;;;;5003118;28;45301;-72
2021/11/20 08:32:03;;;;;;;;;4.50;4.50;;;;;;;;5006367;28;46416;-71
2021/11/20 08:34:30;;;;;;;;;5.25;4.50;;;;;;;;4999915;28;45550;-73
2021/11/20 08:36:55;;;;;;;;;5.75;4.00;;;;;;;;5000696;28;45541;-71
2021/11/20 08:39:20;;;;;;;;;6.50;6.00;;;;;;;;5008025;28;45483;-71
2021/11/20 08:41:46;;;;;;;;;8.00;6.00;;;;;;;;5000927;28;46201;-71
2021/11/20 08:44:12;;;;;;;;;7.50;7.00;;;;;;;;5000554;28;45430;-70
2021/11/20 08:46:38;;;;;;;;;11.75;6.50;;;;;;;;5009886;28;45544;-71
2021/11/20 08:49:04;;;;;;;;;7.25;3.50;;;;;;;;5003803;28;45670;-71
2021/11/20 08:51:30;;;;;;;;;8.00;6.50;;;;;;;;5006437;28;46533;-71
2021/11/20 08:53:55;;;;;;;;;8.25;6.50;;;;;;;;5012510;28;45890;-71
2021/11/20 08:56:21;;;;;;;;;9.00;7.00;;;;;;;;5006824;28;45429;-71
2021/11/20 08:58:46;;;;;;;;;10.00;6.75;;;;;;;;5004314;28;45432;-71
2021/11/20 09:01:17;;;;;;;;;6.75;2.25;;;;;;;;5006685;28;45693;-71
2021/11/20 09:03:51;;;;;;;;;8.00;6.25;;;;;;;;5001718;28;45831;-71
2021/11/20 09:06:16;;;;;;;;;12.25;7.50;;;;;;;;5000154;28;45549;-71
2021/11/20 09:08:41;;;;;;;;;8.00;7.67;;;;;;;;4997866;28;45348;-71
2021/11/20 09:11:20;;;;;;;;;13.25;10.00;;;;;;;;5002093;28;45400;-71
2021/11/20 09:13:51;;;;;;;;;13.25;7.25;;;;;;;;5002116;28;45350;-71
2021/11/20 09:16:19;;;;;;;;;7.00;7.00;;;;;;;;5003053;28;45447;-71
2021/11/20 09:18:45;;;;;;;;;9.50;8.00;;;;;;;;5002697;28;45508;-70
2021/11/20 09:21:11;;;;;;;;;10.75;8.50;;;;;;;;5000912;28;46757;-70
2021/11/20 09:23:37;;;;;;;;;15.25;7.25;;;;;;;;5004545;28;45818;-73
2021/11/20 09:26:03;;;;;;;;;7.75;6.00;;;;;;;;5003512;28;45411;-71
2021/11/20 09:28:29;;;;;;;;;9.25;8.75;;;;;;;;5002397;28;47534;-71
2021/11/20 09:30:55;;;;;;;;;23.50;23.50;;;;;;;;5003594;28;47679;-72
2021/11/20 09:33:22;;;;;;;;;46.50;37.00;;;;;;;;4997292;28;46062;-71
2021/11/20 09:35:48;;;;;;;;;10.75;9.25;;;;;;;;4998691;28;45494;-71
2021/11/20 09:38:14;;;;;;;;;7.00;6.25;;;;;;;;5004168;28;45543;-70
2021/11/20 09:40:41;;;;;;;;;12.50;8.00;;;;;;;;5001760;28;46508;-73
2021/11/20 09:43:09;;;;;;;;;11.50;8.25;;;;;;;;5008225;28;45686;-71
2021/11/20 09:45:36;;;;;;;;;9.50;8.00;;;;;;;;5008042;28;45435;-71
2021/11/20 09:48:09;;;;;;;;;10.50;7.75;;;;;;;;4997798;28;45403;-71
2021/11/20 09:50:38;;;;;;;;;8.50;7.25;;;;;;;;4997891;28;46537;-73
2021/11/20 09:53:06;;;;;;;;;12.00;10.00;;;;;;;;5004408;28;45804;-72
2021/11/20 09:55:34;;;;;;;;;17.25;13.00;;;;;;;;5001657;28;45804;-73
2021/11/20 09:58:15;;;;;;;;;14.50;10.00;;;;;;;;5009554;28;45366;-71
2021/11/20 10:00:59;;;;;;;;;14.00;9.75;;;;;;;;5011284;28;47558;-71
2021/11/20 10:03:45;;;;;;;;;9.50;8.75;;;;;;;;5009623;28;45524;-72
2021/11/20 10:06:36;;;;;;;;;9.50;9.00;;;;;;;;4998532;28;45665;-70
2021/11/20 10:09:04;;;;;;;;;12.75;9.25;;;;;;;;5001439;28;45392;-71
2021/11/20 10:11:35;;;;;;;;;13.00;10.50;;;;;;;;5005109;28;45360;-71
2021/11/20 10:14:07;;;;;;;;;8.75;8.25;;;;;;;;5011037;28;45738;-71
2021/11/20 10:16:48;;;;;;;;;17.25;14.00;;;;;;;;5009359;28;45537;-71
2021/11/20 10:19:25;;;;;;;;;17.25;12.25;;;;;;;;5015222;28;45517;-72
2021/11/20 10:22:13;;;;;;;;;20.50;15.25;;;;;;;;5014838;28;46674;-72
2021/11/20 10:24:42;;;;;;;;;13.00;10.00;;;;;;;;5004342;28;45852;-72
2021/11/20 10:27:43;;;;;;;;;15.75;14.75;;;;;;;;5011873;28;45391;-71
2021/11/20 10:30:14;;;;;;;;;15.25;9.50;;;;;;;;4926429;28;45602;-70
2021/11/20 10:32:48;;;;;;;;;118.50;100.25;;;;;;;;4934854;28;46599;-70
2021/11/20 10:35:22;;;;;;;;;13.25;9.00;;;;;;;;4930191;28;45485;-71
2021/11/20 10:38:03;;;;;;;;;15.50;10.00;;;;;;;;4929476;28;45371;-71
2021/11/20 10:40:31;;;;;;;;;13.75;9.00;;;;;;;;4929006;28;45490;-71
2021/11/20 10:43:04;;;;;;;;;11.75;9.25;;;;;;;;4926869;28;46411;-71
2021/11/20 10:45:35;;;;;;;;;13.75;12.50;;;;;;;;4934789;28;45914;-70
2021/11/20 10:48:29;;;;;;;;;12.75;8.00;;;;;;;;4920230;28;45430;-71
2021/11/20 10:51:10;;;;;;;;;13.00;12.00;;;;;;;;4910950;28;45560;-70
2021/11/20 10:53:55;;;;;;;;;15.50;9.25;;;;;;;;4935505;28;46649;-71
2021/11/20 10:56:23;;;;;;;;;12.50;9.00;;;;;;;;4927394;28;45576;-72
2021/11/20 10:58:54;;;;;;;;;11.00;8.25;;;;;;;;4925658;28;45991;-71
2021/11/20 11:01:48;;;;;;;;;11.50;11.25;;;;;;;;4924211;28;45521;-71
2021/11/20 11:04:26;;;;;;;;;15.25;14.00;;;;;;;;4967608;28;46266;-71
2021/11/20 11:06:51;;;;;;;;;14.75;9.50;;;;;;;;5003048;28;45636;-71
2021/11/20 11:09:16;;;;;;;;;15.00;10.00;;;;;;;;5002591;28;45556;-71
2021/11/20 11:11:48;;;;;;;;;15.00;7.75;;;;;;;;5000183;28;45456;-71
2021/11/20 11:14:31;;;;;;;;;40.50;30.75;;;;;;;;5000426;28;45496;-72
2021/11/20 11:17:05;;;;;;;;;11.75;10.00;;;;;;;;5007890;28;45354;-72
2021/11/20 11:19:31;;;;;;;;;13.75;13.25;;;;;;;;5003676;28;45582;-72
2021/11/20 11:22:02;;;;;;;;;14.00;9.50;;;;;;;;5003432;28;45738;-71
2021/11/20 11:24:47;;;;;;;;;15.50;11.75;;;;;;;;5007778;28;45502;-72
2021/11/20 11:27:17;;;;;;;;;14.00;12.75;;;;;;;;5013119;28;45902;-72
2021/11/20 11:30:03;;;;;;;;;15.25;12.25;;;;;;;;5013280;28;45463;-72
2021/11/20 11:32:29;;;;;;;;;14.25;14.00;;;;;;;;5015705;28;45496;-71
2021/11/20 11:34:57;;;;;;;;;18.25;14.00;;;;;;;;5003972;28;46583;-72
2021/11/20 11:37:40;;;;;;;;;14.75;12.00;;;;;;;;5008004;28;45462;-73
2021/11/20 11:40:05;;;;;;;;;11.00;8.00;;;;;;;;5012891;28;45423;-72
2021/11/20 11:42:35;;;;;;;;;16.75;12.50;;;;;;;;5009015;28;45528;-71
2021/11/20 11:45:07;;;;;;;;;19.50;10.50;;;;;;;;5003684;28;45495;-72
2021/11/20 11:47:51;;;;;;;;;8.75;8.25;;;;;;;;4991285;28;46173;-72
2021/11/20 11:50:25;;;;;;;;;12.75;11.25;;;;;;;;5013030;28;45544;-72
2021/11/20 11:52:52;;;;;;;;;16.00;12.50;;;;;;;;5010233;28;45474;-72
2021/11/20 11:55:30;;;;;;;;;13.50;10.25;;;;;;;;5009213;28;47181;-72
2021/11/20 11:58:01;;;;;;;;;10.50;8.00;;;;;;;;5009537;28;45494;-71
2021/11/20 12:00:44;;;;;;;;;10.00;10.00;;;;;;;;5003844;28;45585;-76
2021/11/20 12:03:29;;;;;;;;;14.50;8.50;;;;;;;;5005055;28;45438;-75
2021/11/20 12:06:03;;;;;;;;;10.50;10.25;;;;;;;;5002717;28;47217;-73
2021/11/20 12:08:28;;;;;;;;;16.50;10.75;;;;;;;;4999260;28;45371;-75
2021/11/20 12:10:57;;;;;;;;;13.25;13.00;;;;;;;;5004025;28;45504;-75
2021/11/20 12:13:46;;;;;;;;;11.50;9.75;;;;;;;;5007239;28;45722;-75
2021/11/20 12:16:23;;;;;;;;;12.75;12.25;;;;;;;;4950618;28;46610;-75
2021/11/20 12:18:57;;;;;;;;;21.75;16.50;;;;;;;;4950785;28;45951;-75
2021/11/20 12:21:25;;;;;;;;;22.00;14.25;;;;;;;;4953443;28;45567;-75
2021/11/20 12:23:56;;;;;;;;;14.25;13.50;;;;;;;;4950324;28;45412;-75
2021/11/20 12:26:27;;;;;;;;;15.00;13.00;;;;;;;;4958259;28;45498;-74
2021/11/20 12:28:53;;;;;;;;;22.25;14.25;;;;;;;;4951033;28;45819;-75
2021/11/20 12:31:36;;;;;;;;;19.67;14.33;;;;;;;;4952875;28;45539;-76
2021/11/20 12:34:10;;;;;;;;;18.50;13.50;;;;;;;;4953465;28;45541;-75
2021/11/20 12:36:35;;;;;;;;;20.75;13.75;;;;;;;;4953676;28;45401;-75
2021/11/20 12:39:01;;;;;;;;;15.33;14.00;;;;;;;;4938204;28;46742;-72
2021/11/20 12:41:44;;;;;;;;;18.00;12.67;;;;;;;;4953049;28;45555;-74
2021/11/20 12:44:29;;;;;;;;;24.75;20.25;;;;;;;;4953494;28;45556;-73
2021/11/20 12:47:13;;;;;;;;;17.00;13.50;;;;;;;;4875415;29;45510;-75
2021/11/20 12:49:39;;;;;;;;;25.00;19.00;;;;;;;;4876073;29;45412;-74
2021/11/20 12:52:13;;;;;;;;;26.00;16.67;;;;;;;;4876781;28;45535;-74
2021/11/20 12:54:41;;;;;;;;;26.00;20.75;;;;;;;;4920939;28;45485;-76
2021/11/20 12:57:26;;;;;;;;;20.00;15.50;;;;;;;;4932310;28;45621;-76
2021/11/20 12:59:54;;;;;;;;;19.75;18.50;;;;;;;;4927117;28;46028;-76
2021/11/20 13:02:25;;;;;;;;;19.50;16.25;;;;;;;;4932873;28;45941;-76
2021/11/20 13:04:52;;;;;;;;;22.50;17.50;;;;;;;;4930975;28;45550;-76
2021/11/20 13:07:25;;;;;;;;;19.00;14.25;;;;;;;;4925996;28;45907;-76
2021/11/20 13:09:56;;;;;;;;;13.75;12.75;;;;;;;;4920104;28;45375;-76
2021/11/20 13:12:25;;;;;;;;;18.00;11.25;;;;;;;;4925902;28;45454;-75
2021/11/20 13:15:09;;;;;;;;;22.75;15.75;;;;;;;;4930424;28;45618;-76
2021/11/20 13:17:46;;;;;;;;;20.25;17.75;;;;;;;;4928752;28;46253;-76
2021/11/20 13:20:14;;;;;;;;;32.50;23.25;;;;;;;;4925316;28;46090;-74
2021/11/20 13:22:41;;;;;;;;;19.25;13.75;;;;;;;;4929151;28;45419;-75
2021/11/20 13:25:12;;;;;;;;;19.50;15.25;;;;;;;;5007351;28;45398;-76
2021/11/20 13:27:43;;;;;;;;;21.75;16.25;;;;;;;;5006613;28;45633;-76
2021/11/20 13:30:10;;;;;;;;;25.75;17.50;;;;;;;;5012349;28;45886;-76
2021/11/20 13:32:35;;;;;;;;;18.50;13.00;;;;;;;;4998579;28;45454;-76
2021/11/20 13:35:02;;;;;;;;;16.00;12.00;;;;;;;;5005896;28;45644;-76
2021/11/20 13:37:27;;;;;;;;;25.00;15.25;;;;;;;;5009252;28;45544;-76
2021/11/20 13:39:52;;;;;;;;;26.00;20.00;;;;;;;;5001226;28;45567;-76
2021/11/20 13:42:17;;;;;;;;;26.00;20.67;;;;;;;;5001580;28;45415;-77
2021/11/20 13:44:43;;;;;;;;;26.00;18.00;;;;;;;;5010033;28;45532;-75
2021/11/20 13:47:09;;;;;;;;;19.25;13.00;;;;;;;;5005337;28;46322;-75
2021/11/20 13:49:34;;;;;;;;;17.50;14.75;;;;;;;;5012472;28;45434;-76
2021/11/20 13:52:06;;;;;;;;;23.50;14.75;;;;;;;;5012803;28;45455;-75
2021/11/20 13:54:31;;;;;;;;;18.00;14.50;;;;;;;;5013749;28;45432;-76
2021/11/20 13:56:56;;;;;;;;;23.67;17.33;;;;;;;;5005451;28;46210;-76
2021/11/20 13:59:24;;;;;;;;;20.00;14.67;;;;;;;;5006325;28;45574;-77
2021/11/20 14:01:50;;;;;;;;;21.00;18.50;;;;;;;;5013870;28;45304;-75
2021/11/20 14:04:16;;;;;;;;;26.75;15.75;;;;;;;;5010876;28;45674;-76
2021/11/20 14:06:42;;;;;;;;;15.25;12.50;;;;;;;;5014762;28;46337;-75
2021/11/20 14:09:09;;;;;;;;;25.75;18.50;;;;;;;;5012121;28;45495;-74
2021/11/20 14:11:34;;;;;;;;;20.75;14.00;;;;;;;;5002788;28;45656;-74
2021/11/20 14:14:00;;;;;;;;;18.75;10.75;;;;;;;;5010931;28;45539;-74
2021/11/20 14:16:36;;;;;;;;;21.25;17.75;;;;;;;;5004200;28;45370;-74
2021/11/20 14:19:02;;;;;;;;;23.75;19.00;;;;;;;;5007393;28;45946;-74
2021/11/20 14:21:28;;;;;;;;;31.00;28.50;;;;;;;;5007748;28;45459;-74
2021/11/20 14:24:02;;;;;;;;;29.50;19.50;;;;;;;;5003026;28;45387;-74
2021/11/20 14:26:29;;;;;;;;;29.25;23.00;;;;;;;;5016394;28;45948;-74
2021/11/20 14:28:58;;;;;;;;;24.50;17.75;;;;;;;;5014808;28;45989;-74
2021/11/20 14:31:23;;;;;;;;;29.75;22.75;;;;;;;;5009830;28;45412;-74
2021/11/20 14:33:53;;;;;;;;;35.67;27.00;;;;;;;;5009491;28;45448;-74
2021/11/20 14:36:29;;;;;;;;;30.50;24.75;;;;;;;;5015354;28;45428;-74
2021/11/20 14:38:55;;;;;;;;;36.00;24.25;;;;;;;;5010589;28;45692;-74
2021/11/20 14:41:20;;;;;;;;;22.67;18.67;;;;;;;;5014221;28;45529;-74
2021/11/20 14:43:45;;;;;;;;;30.00;23.33;;;;;;;;5015769;28;45454;-74